Time;durP1;ratioP1;P1;durP2;ratioP2;P2;SDS_P1;SDS_P2;PMS_P1;PMS_P2;Temp;Humidity;BMP_temperature;BMP_pressure;BME280_temperature;BME280_humidity;BME280_pressure;Samples;Min_cycle;Max_cycle;Signal;HPM_P1;HPM_P2
2024/03/01 00:01:29;;;;;;;12.47;6.07;;;;;;;2.36;74.45;101523.09;5039329;28;20442;-71
2024/03/01 00:03:57;;;;;;;12.73;7.43;;;;;;;2.38;74.24;101527.44;5038724;28;20439;-71
2024/03/01 00:06:24;;;;;;;10.73;6.17;;;;;;;2.38;74.21;101531.75;5038897;28;20436;-71
2024/03/01 00:08:51;;;;;;;12.27;6.37;;;;;;;2.38;74.14;101529.16;5038716;28;20956;-71
2024/03/01 00:11:18;;;;;;;9.97;5.67;;;;;;;2.38;74.48;101531.75;5038667;28;20448;-71
2024/03/01 00:13:45;;;;;;;11.00;5.87;;;;;;;2.33;74.17;101523.00;5038736;28;20458;-71
2024/03/01 00:16:12;;;;;;;10.63;5.60;;;;;;;2.35;74.33;101524.78;5038759;28;20442;-71
2024/03/01 00:18:39;;;;;;;10.20;6.27;;;;;;;2.38;74.30;101524.00;5038826;28;20856;-71
2024/03/01 00:21:07;;;;;;;12.40;6.20;;;;;;;2.38;74.19;101532.59;5038601;28;20751;-75
2024/03/01 00:23:34;;;;;;;11.07;6.77;;;;;;;2.37;74.30;101530.88;5034752;28;20423;-76
2024/03/01 00:26:01;;;;;;;12.87;6.53;;;;;;;2.38;74.31;101524.84;5035742;28;20494;-75
2024/03/01 00:28:28;;;;;;;11.57;6.33;;;;;;;2.38;74.25;101530.03;5035546;28;20451;-76
2024/03/01 00:30:55;;;;;;;10.70;6.53;;;;;;;2.37;74.32;101520.53;5035369;28;20487;-75
2024/03/01 00:33:22;;;;;;;9.83;5.73;;;;;;;2.37;74.34;101532.59;5035344;28;20444;-75
2024/03/01 00:35:48;;;;;;;10.93;6.73;;;;;;;2.33;74.51;101520.44;5035399;28;20431;-75
2024/03/01 00:38:17;;;;;;;10.53;6.10;;;;;;;2.37;74.23;101537.75;5035341;28;20439;-76
2024/03/01 00:40:44;;;;;;;12.87;6.10;;;;;;;2.35;74.58;101532.53;5035330;28;20439;-75
2024/03/01 00:43:11;;;;;;;11.07;6.23;;;;;;;2.34;74.59;101530.81;5035288;28;20440;-75
2024/03/01 00:45:38;;;;;;;9.80;5.97;;;;;;;2.37;74.53;101530.00;5035106;28;20932;-75
2024/03/01 00:48:09;;;;;;;9.37;5.60;;;;;;;2.37;74.51;101522.25;5035240;28;20440;-75
2024/03/01 00:50:36;;;;;;;11.67;5.80;;;;;;;2.37;74.37;101524.84;5034979;28;20524;-75
2024/03/01 00:53:04;;;;;;;9.43;5.77;;;;;;;2.37;74.48;101535.16;5034958;28;20436;-75
2024/03/01 00:55:32;;;;;;;12.17;6.70;;;;;;;2.35;74.69;101527.38;5034907;28;20520;-75
2024/03/01 00:57:59;;;;;;;10.90;5.80;;;;;;;2.36;74.94;101534.31;5035149;28;20531;-75
2024/03/01 01:00:27;;;;;;;9.80;5.60;;;;;;;2.36;74.62;101533.44;5035120;28;20441;-75
2024/03/01 01:02:54;;;;;;;13.03;6.80;;;;;;;2.35;74.48;101529.97;5034839;28;20441;-75
2024/03/01 01:05:22;;;;;;;11.20;6.00;;;;;;;2.33;74.53;101528.16;5034821;28;20436;-75
2024/03/01 01:07:49;;;;;;;8.73;5.80;;;;;;;2.34;74.60;101530.81;5041849;28;20458;-75
2024/03/01 01:10:16;;;;;;;11.13;6.23;;;;;;;2.35;74.66;101531.69;5055100;28;20482;-72
2024/03/01 01:12:44;;;;;;;12.10;6.30;;;;;;;2.35;74.79;101537.69;5054679;28;20443;-71
2024/03/01 01:15:11;;;;;;;12.10;5.93;;;;;;;2.36;74.96;101533.44;5054595;28;20439;-71
2024/03/01 01:17:38;;;;;;;11.03;6.13;;;;;;;2.35;74.69;101537.69;5054714;28;20443;-71
2024/03/01 01:20:06;;;;;;;9.33;6.03;;;;;;;2.36;75.10;101542.06;5054266;28;20445;-72
2024/03/01 01:22:32;;;;;;;9.97;6.07;;;;;;;2.34;75.05;101543.72;5054285;28;20433;-72
2024/03/01 01:25:00;;;;;;;13.30;5.67;;;;;;;2.34;74.79;101546.31;5054352;28;20780;-71
2024/03/01 01:27:27;;;;;;;9.67;5.83;;;;;;;2.34;74.31;101542.84;5054191;28;20924;-71
2024/03/01 01:29:55;;;;;;;10.80;6.40;;;;;;;2.33;74.96;101536.81;5054206;28;20847;-72
2024/03/01 01:32:23;;;;;;;12.63;6.10;;;;;;;2.33;74.89;101541.09;5054212;28;20446;-71
2024/03/01 01:34:50;;;;;;;11.70;5.70;;;;;;;2.33;75.07;101535.91;5053968;28;20440;-71
2024/03/01 01:37:17;;;;;;;8.17;4.90;;;;;;;2.33;74.83;101536.81;5054040;28;20450;-71
2024/03/01 01:39:44;;;;;;;10.70;6.10;;;;;;;2.32;74.89;101535.06;5054011;28;20443;-71
2024/03/01 01:42:11;;;;;;;11.07;6.30;;;;;;;2.31;75.05;101523.00;5053950;28;20795;-70
2024/03/01 01:44:38;;;;;;;12.00;6.60;;;;;;;2.32;74.97;101529.88;5054165;28;20438;-71
2024/03/01 01:47:07;;;;;;;12.73;6.43;;;;;;;2.31;74.86;101520.41;5053829;28;20450;-71
2024/03/01 01:49:34;;;;;;;9.47;6.10;;;;;;;2.33;74.86;101533.34;5053868;28;20530;-72
2024/03/01 01:52:01;;;;;;;9.77;5.97;;;;;;;2.32;74.92;101531.59;5053800;28;20442;-71
2024/03/01 01:54:29;;;;;;;12.37;6.57;;;;;;;2.33;75.13;101535.91;5053512;28;20426;-71
2024/03/01 01:56:56;;;;;;;11.40;6.43;;;;;;;2.33;75.28;101525.59;5053716;28;20442;-71
2024/03/01 01:59:23;;;;;;;10.57;6.43;;;;;;;2.32;75.01;101519.56;5053580;28;20432;-71
2024/03/01 02:01:50;;;;;;;11.77;6.37;;;;;;;2.34;75.23;101519.59;5053552;28;20803;-71
2024/03/01 02:04:19;;;;;;;12.67;6.90;;;;;;;2.32;75.47;101514.41;5053528;28;20445;-71
2024/03/01 02:06:46;;;;;;;10.50;6.50;;;;;;;2.34;75.23;101514.44;5053766;28;20446;-71
2024/03/01 02:09:17;;;;;;;12.40;6.43;;;;;;;2.33;75.38;101512.69;5053422;28;20463;-71
2024/03/01 02:11:44;;;;;;;9.97;5.30;;;;;;;2.32;75.14;101516.09;5053794;28;20446;-72
2024/03/01 02:14:11;;;;;;;11.77;7.07;;;;;;;2.32;75.25;101521.28;5053306;28;20439;-72
2024/03/01 02:16:38;;;;;;;12.20;6.17;;;;;;;2.31;75.20;101515.25;5053368;28;20439;-71
2024/03/01 02:19:13;;;;;;;13.77;6.20;;;;;;;2.31;75.23;101511.78;5053218;28;20444;-71
2024/03/01 02:21:48;;;;;;;8.73;5.73;;;;;;;2.30;75.44;101513.50;5053375;28;20458;-71
2024/03/01 02:24:17;;;;;;;10.20;6.10;;;;;;;2.31;75.51;101520.41;5053296;28;20447;-71
2024/03/01 02:26:43;;;;;;;10.63;5.20;;;;;;;2.30;75.19;101518.69;5053132;28;20436;-71
2024/03/01 02:29:10;;;;;;;10.80;5.80;;;;;;;2.29;75.35;101506.59;5052995;28;20448;-71
2024/03/01 02:31:37;;;;;;;8.90;5.17;;;;;;;2.29;75.22;101510.88;5053278;28;20995;-71
2024/03/01 02:34:05;;;;;;;8.83;5.80;;;;;;;2.28;75.61;101512.59;5053105;28;20438;-71
2024/03/01 02:36:31;;;;;;;11.63;5.83;;;;;;;2.29;75.32;101510.88;5053047;28;20449;-71
2024/03/01 02:38:58;;;;;;;10.67;5.87;;;;;;;2.28;75.36;101515.19;5052910;28;20435;-71
2024/03/01 02:41:26;;;;;;;9.43;6.30;;;;;;;2.28;75.40;101516.88;5053306;28;20465;-78
2024/03/01 02:43:53;;;;;;;10.57;5.67;;;;;;;2.27;75.10;101516.03;5053778;28;20959;-78
2024/03/01 02:46:22;;;;;;;11.73;6.53;;;;;;;2.26;75.37;101522.00;5053196;28;20885;-78
2024/03/01 02:48:49;;;;;;;11.90;6.30;;;;;;;2.23;75.57;101519.34;5053566;28;20496;-78
2024/03/01 02:51:16;;;;;;;12.17;6.30;;;;;;;2.26;75.60;101515.97;5053310;28;20573;-78
2024/03/01 02:53:45;;;;;;;11.23;5.67;;;;;;;2.25;75.42;101519.41;5053304;28;20438;-78
2024/03/01 02:56:12;;;;;;;11.73;5.60;;;;;;;2.24;75.73;101515.06;5053500;28;20509;-78
2024/03/01 02:58:40;;;;;;;12.43;6.90;;;;;;;2.25;75.90;101528.00;5053101;28;20440;-77
2024/03/01 03:01:07;;;;;;;10.93;6.63;;;;;;;2.24;76.09;101521.09;5053270;28;20453;-77
2024/03/01 03:03:34;;;;;;;12.07;5.77;;;;;;;2.23;75.82;101515.91;5052973;28;20450;-78
2024/03/01 03:06:01;;;;;;;11.43;6.87;;;;;;;2.21;75.82;101520.16;5053329;28;20934;-78
2024/03/01 03:08:28;;;;;;;10.73;5.73;;;;;;;2.25;75.83;101517.69;5052975;28;20437;-77
2024/03/01 03:10:55;;;;;;;10.77;5.93;;;;;;;2.25;75.65;101509.94;5053001;28;20486;-77
2024/03/01 03:13:22;;;;;;;13.00;7.00;;;;;;;2.24;76.16;101513.34;5053357;28;20446;-77
2024/03/01 03:15:50;;;;;;;11.43;6.30;;;;;;;2.26;76.27;101514.25;5053207;28;20440;-77
2024/03/01 03:18:17;;;;;;;11.03;5.47;;;;;;;2.26;76.12;101511.69;5053376;28;20931;-77
2024/03/01 03:20:44;;;;;;;10.60;5.83;;;;;;;2.27;76.24;101509.97;5053380;28;20481;-78
2024/03/01 03:23:11;;;;;;;12.60;6.73;;;;;;;2.26;76.09;101509.09;5053116;28;20442;-78
2024/03/01 03:25:38;;;;;;;10.63;5.70;;;;;;;2.27;76.14;101513.44;5053429;28;20987;-78
2024/03/01 03:28:05;;;;;;;9.33;5.20;;;;;;;2.28;76.08;101512.59;5053197;28;20438;-78
2024/03/01 03:30:32;;;;;;;9.30;5.33;;;;;;;2.28;76.29;101515.19;5053228;28;20489;-71
2024/03/01 03:33:00;;;;;;;12.47;6.13;;;;;;;2.29;76.10;101511.75;5052318;28;20435;-70
2024/03/01 03:35:27;;;;;;;11.13;6.33;;;;;;;2.30;76.32;101510.03;5052404;28;20954;-70
2024/03/01 03:37:54;;;;;;;13.57;7.13;;;;;;;2.30;76.50;101502.28;5052443;28;20853;-70
2024/03/01 03:40:20;;;;;;;10.43;5.50;;;;;;;2.31;76.15;101504.91;5052197;28;20806;-70
2024/03/01 03:42:47;;;;;;;9.77;5.90;;;;;;;2.32;76.57;101514.41;5052428;28;20432;-70
2024/03/01 03:45:14;;;;;;;12.17;5.87;;;;;;;2.34;76.29;101510.16;5052235;28;20436;-70
2024/03/01 03:47:40;;;;;;;11.83;6.70;;;;;;;2.34;76.87;101510.16;5052264;28;20447;-71
2024/03/01 03:50:09;;;;;;;11.63;5.70;;;;;;;2.35;76.69;101504.13;5052150;28;20916;-70
2024/03/01 03:52:36;;;;;;;17.03;7.87;;;;;;;2.35;76.69;101504.13;5052112;28;20651;-71
2024/03/01 03:55:06;;;;;;;12.60;7.90;;;;;;;2.37;76.98;101510.22;5051998;28;20466;-71
2024/03/01 03:57:33;;;;;;;14.37;6.93;;;;;;;2.38;76.88;101496.44;5052842;28;20506;-71
2024/03/01 04:00:01;;;;;;;13.80;6.53;;;;;;;2.41;76.79;101507.69;5056084;28;20435;-71
2024/03/01 04:02:28;;;;;;;15.80;7.50;;;;;;;2.41;76.95;101505.13;5055822;28;20436;-71
2024/03/01 04:04:55;;;;;;;15.43;7.00;;;;;;;2.44;76.64;101510.34;5055895;28;20438;-71
2024/03/01 04:07:23;;;;;;;13.37;6.70;;;;;;;2.44;76.99;101506.06;5055991;28;20951;-71
2024/03/01 04:09:51;;;;;;;14.03;6.27;;;;;;;2.45;77.09;101501.78;5055618;28;20443;-71
2024/03/01 04:12:17;;;;;;;13.83;7.37;;;;;;;2.46;77.07;101508.69;5055925;28;20524;-71
2024/03/01 04:14:44;;;;;;;12.83;7.47;;;;;;;2.48;77.04;101507.00;5055603;28;20446;-71
2024/03/01 04:17:12;;;;;;;11.07;5.90;;;;;;;2.50;77.15;101507.91;5055955;28;21025;-71
2024/03/01 04:19:39;;;;;;;10.63;6.40;;;;;;;2.51;77.07;101513.13;5055604;28;20439;-71
2024/03/01 04:22:08;;;;;;;14.50;7.00;;;;;;;2.53;77.19;101511.44;5055905;28;20812;-71
2024/03/01 04:24:37;;;;;;;13.80;7.07;;;;;;;2.55;77.09;101514.03;5055534;28;20449;-71
2024/03/01 04:27:04;;;;;;;9.83;4.80;;;;;;;2.56;77.08;101510.63;5055781;28;20434;-71
2024/03/01 04:29:31;;;;;;;10.70;5.00;;;;;;;2.58;77.23;101524.44;5055608;28;20447;-71
2024/03/01 04:31:58;;;;;;;13.27;6.90;;;;;;;2.60;77.22;101517.59;5055149;28;20483;-71
2024/03/01 04:34:25;;;;;;;12.17;6.13;;;;;;;2.61;77.30;101519.34;5055230;28;20451;-71
2024/03/01 04:36:54;;;;;;;12.37;7.03;;;;;;;2.63;77.37;101515.09;5055525;28;20445;-71
2024/03/01 04:39:21;;;;;;;11.17;6.10;;;;;;;2.63;77.55;101514.22;5055385;28;20457;-71
2024/03/01 04:41:49;;;;;;;12.70;6.70;;;;;;;2.65;77.36;101521.16;5055157;28;20819;-71
2024/03/01 04:44:16;;;;;;;10.73;5.93;;;;;;;2.67;77.27;101513.44;5055107;28;20439;-70
2024/03/01 04:46:43;;;;;;;13.57;6.33;;;;;;;2.68;77.12;101516.06;5055115;28;20447;-70
2024/03/01 04:49:11;;;;;;;13.53;6.73;;;;;;;2.68;77.45;101513.47;5054975;28;20470;-71
2024/03/01 04:51:38;;;;;;;10.60;5.60;;;;;;;2.70;77.23;101519.56;5054753;28;20499;-70
2024/03/01 04:54:05;;;;;;;15.27;6.63;;;;;;;2.72;77.34;101523.03;5054812;28;20439;-70
2024/03/01 04:56:31;;;;;;;14.07;7.10;;;;;;;2.72;77.30;101528.19;5054784;28;20476;-71
2024/03/01 04:59:01;;;;;;;13.00;7.10;;;;;;;2.74;77.45;101520.50;5054865;28;20441;-71
2024/03/01 05:01:28;;;;;;;12.37;5.97;;;;;;;2.75;77.39;101520.50;5054835;28;20967;-75
2024/03/01 05:03:55;;;;;;;12.47;6.73;;;;;;;2.77;77.38;101520.56;5054768;28;20838;-75
2024/03/01 05:06:21;;;;;;;12.27;6.23;;;;;;;2.78;77.35;101523.16;5051773;28;21037;-75
2024/03/01 05:08:48;;;;;;;4.63;1.93;;;;;;;2.80;77.04;101526.66;5034506;28;20446;-75
2024/03/01 05:11:17;;;;;;;14.47;7.00;;;;;;;2.80;77.01;101529.25;5034793;28;20488;-75
2024/03/01 05:13:44;;;;;;;13.40;7.63;;;;;;;2.81;77.49;101527.53;5034693;28;20550;-75
2024/03/01 05:16:14;;;;;;;12.70;6.30;;;;;;;2.82;77.35;101530.16;5034485;28;20439;-75
2024/03/01 05:18:41;;;;;;;11.00;6.70;;;;;;;2.82;77.30;101527.56;5034599;28;20449;-75
2024/03/01 05:21:10;;;;;;;14.13;6.57;;;;;;;2.85;77.43;101533.66;5034543;28;20450;-75
2024/03/01 05:23:37;;;;;;;14.17;7.57;;;;;;;2.85;77.32;101521.59;5034450;28;20433;-75
2024/03/01 05:26:04;;;;;;;12.07;6.47;;;;;;;2.86;77.22;101520.75;5034382;28;20445;-75
2024/03/01 05:28:31;;;;;;;11.87;6.60;;;;;;;2.87;77.20;101524.19;5034373;28;20501;-75
2024/03/01 05:30:58;;;;;;;14.10;6.50;;;;;;;2.87;77.40;101521.59;5034544;28;20481;-75
2024/03/01 05:33:28;;;;;;;12.20;6.80;;;;;;;2.91;77.41;101518.28;5034412;28;20437;-75
2024/03/01 05:35:55;;;;;;;15.63;7.57;;;;;;;2.91;77.00;101529.47;5034423;28;20447;-75
2024/03/01 05:38:21;;;;;;;14.07;7.90;;;;;;;2.92;77.53;101525.16;5034023;28;20446;-75
2024/03/01 05:40:48;;;;;;;14.97;7.13;;;;;;;2.93;77.26;101539.84;5034461;28;20431;-75
2024/03/01 05:43:15;;;;;;;10.67;6.73;;;;;;;2.93;77.32;101522.63;5034060;28;20440;-75
2024/03/01 05:45:42;;;;;;;12.73;7.33;;;;;;;2.94;77.06;101528.66;5034032;28;20852;-75
2024/03/01 05:48:12;;;;;;;14.23;7.10;;;;;;;2.93;77.20;101535.56;5034081;28;20950;-75
2024/03/01 05:50:41;;;;;;;11.30;6.63;;;;;;;2.93;77.19;101529.53;5033970;28;20855;-71
2024/03/01 05:53:14;;;;;;;16.27;7.77;;;;;;;2.94;77.13;101532.13;5033951;28;20456;-70
2024/03/01 05:55:40;;;;;;;13.80;6.87;;;;;;;2.94;77.25;101528.66;5033792;28;20477;-70
2024/03/01 05:58:08;;;;;;;11.20;5.97;;;;;;;2.94;77.05;101541.59;5033922;28;20535;-70
2024/03/01 06:00:35;;;;;;;14.37;6.93;;;;;;;2.93;77.10;101532.09;5033685;28;20443;-71
2024/03/01 06:03:02;;;;;;;12.93;6.70;;;;;;;2.93;77.25;101535.56;5033695;28;20526;-70
2024/03/01 06:05:29;;;;;;;13.80;6.70;;;;;;;2.94;77.23;101531.25;5033929;28;20447;-70
2024/03/01 06:07:57;;;;;;;11.37;6.83;;;;;;;2.95;77.18;101535.56;5033616;28;20439;-71
2024/03/01 06:10:24;;;;;;;12.23;6.73;;;;;;;2.94;77.27;101533.84;5033859;28;20949;-78
2024/03/01 06:12:51;;;;;;;13.00;6.87;;;;;;;2.94;77.41;101528.66;5033684;28;20480;-72
2024/03/01 06:15:18;;;;;;;14.00;7.00;;;;;;;2.94;77.40;101533.84;5033448;28;20441;-71
2024/03/01 06:17:45;;;;;;;12.10;6.67;;;;;;;2.94;77.65;101545.03;5033389;28;20437;-71
2024/03/01 06:20:12;;;;;;;13.43;6.30;;;;;;;2.94;77.52;101534.69;5032678;28;20933;-72
2024/03/01 06:22:39;;;;;;;10.03;5.90;;;;;;;2.95;77.56;101546.78;5033365;28;20951;-72
2024/03/01 06:25:07;;;;;;;14.07;7.10;;;;;;;2.97;77.61;101544.25;5033489;28;20842;-72
2024/03/01 06:27:35;;;;;;;10.77;5.87;;;;;;;2.96;77.68;101540.78;5033317;28;20440;-72
2024/03/01 06:30:02;;;;;;;13.13;6.77;;;;;;;2.97;77.64;101533.91;5033134;28;20441;-71
2024/03/01 06:32:29;;;;;;;10.60;4.90;;;;;;;2.96;77.55;101539.91;5033137;28;20480;-71
2024/03/01 06:34:56;;;;;;;12.27;7.30;;;;;;;2.97;77.70;101539.94;5033214;28;20441;-72
2024/03/01 06:37:22;;;;;;;13.57;7.30;;;;;;;2.98;77.84;101540.81;5033105;28;20431;-71
2024/03/01 06:39:49;;;;;;;12.77;7.70;;;;;;;2.97;77.89;101537.34;5032996;28;20530;-71
2024/03/01 06:42:18;;;;;;;14.03;6.20;;;;;;;3.00;78.09;101539.13;5033247;28;20446;-72
2024/03/01 06:44:45;;;;;;;13.57;6.43;;;;;;;2.98;78.07;101530.47;5033002;28;20444;-71
2024/03/01 06:47:12;;;;;;;11.90;7.53;;;;;;;3.00;77.94;101536.53;5032984;28;20446;-72
2024/03/01 06:49:38;;;;;;;14.50;7.97;;;;;;;3.01;77.91;101535.69;5033055;28;20447;-71
2024/03/01 06:52:06;;;;;;;14.47;7.80;;;;;;;3.02;77.99;101537.47;5033009;28;20894;-72
2024/03/01 06:54:32;;;;;;;15.50;7.67;;;;;;;3.02;78.05;101527.97;5032664;28;20445;-72
2024/03/01 06:56:59;;;;;;;13.27;7.87;;;;;;;3.03;78.02;101540.06;5032907;28;20451;-72
2024/03/01 06:59:27;;;;;;;13.00;5.93;;;;;;;3.05;77.89;101546.13;5032786;28;20436;-72
2024/03/01 07:01:55;;;;;;;14.90;7.87;;;;;;;3.04;78.28;101534.06;5033147;28;20464;-78
2024/03/01 07:04:21;;;;;;;14.50;7.13;;;;;;;3.06;78.03;101544.41;5032959;28;20506;-77
2024/03/01 07:06:48;;;;;;;14.47;7.40;;;;;;;3.07;78.03;101541.00;5033135;28;20452;-77
2024/03/01 07:09:16;;;;;;;19.67;8.33;;;;;;;3.07;77.87;101538.44;5032935;28;20934;-77
2024/03/01 07:11:43;;;;;;;17.67;8.87;;;;;;;3.08;78.14;101540.16;5032806;28;20483;-77
2024/03/01 07:14:10;;;;;;;16.40;8.23;;;;;;;3.09;78.11;101547.06;5033068;28;20818;-77
2024/03/01 07:16:38;;;;;;;13.90;7.27;;;;;;;3.06;78.14;101529.78;5032780;28;20962;-77
2024/03/01 07:19:05;;;;;;;15.63;8.07;;;;;;;3.10;78.34;101543.66;5033157;28;20446;-77
2024/03/01 07:21:31;;;;;;;19.27;9.00;;;;;;;3.12;78.14;101541.94;5032956;28;20452;-70
2024/03/01 07:23:58;;;;;;;16.73;8.27;;;;;;;3.11;78.22;101541.94;5032678;28;20447;-71
2024/03/01 07:26:25;;;;;;;16.47;8.57;;;;;;;3.12;78.21;101536.78;5032686;28;20452;-70
2024/03/01 07:28:52;;;;;;;7.30;3.67;;;;;;;3.13;78.14;101553.19;5032440;28;20447;-71
2024/03/01 07:31:19;;;;;;;16.07;7.43;;;;;;;3.12;78.32;101541.94;5033097;28;20810;-70
2024/03/01 07:33:48;;;;;;;12.30;6.40;;;;;;;3.13;78.23;101548.88;5036711;28;20945;-70
2024/03/01 07:36:15;;;;;;;17.50;8.43;;;;;;;3.13;78.31;101548.88;5036541;28;20935;-71
2024/03/01 07:38:42;;;;;;;17.40;8.87;;;;;;;3.14;78.26;101548.03;5036313;28;20502;-71
2024/03/01 07:41:09;;;;;;;19.13;8.60;;;;;;;3.15;78.26;101560.13;5036807;28;20436;-71
2024/03/01 07:43:36;;;;;;;19.73;10.10;;;;;;;3.15;78.36;101542.00;5036332;28;20930;-71
2024/03/01 07:46:03;;;;;;;19.47;9.53;;;;;;;3.16;78.39;101548.94;5036285;28;20443;-71
2024/03/01 07:48:30;;;;;;;15.90;8.47;;;;;;;3.18;78.26;101543.78;5036423;28;20446;-71
2024/03/01 07:50:58;;;;;;;18.93;8.70;;;;;;;3.19;78.29;101550.72;5036395;28;20442;-70
2024/03/01 07:53:25;;;;;;;17.80;9.63;;;;;;;3.19;78.25;101543.84;5036052;28;21008;-71
2024/03/01 07:55:52;;;;;;;18.37;8.90;;;;;;;3.20;78.38;101544.69;5036139;28;20481;-71
2024/03/01 07:58:20;;;;;;;13.87;7.87;;;;;;;3.21;78.36;101549.03;5035935;28;20455;-70
2024/03/01 08:00:47;;;;;;;16.87;9.30;;;;;;;3.21;78.47;101546.44;5035894;28;20443;-71
2024/03/01 08:03:14;;;;;;;14.73;6.37;;;;;;;3.21;78.27;101544.75;5035996;28;20436;-71
2024/03/01 08:05:41;;;;;;;17.47;8.30;;;;;;;3.21;78.38;101555.09;5035983;28;20439;-70
2024/03/01 08:08:10;;;;;;;17.23;9.03;;;;;;;3.22;78.46;101546.47;5035961;28;20431;-71
2024/03/01 08:10:41;;;;;;;18.03;8.43;;;;;;;3.22;78.40;101549.06;5035897;28;20960;-71
2024/03/01 08:13:08;;;;;;;18.27;9.40;;;;;;;3.24;78.43;101554.25;5035738;28;20986;-71
2024/03/01 08:15:36;;;;;;;18.50;9.33;;;;;;;3.19;78.41;101546.44;5035931;28;20484;-71
2024/03/01 08:18:15;;;;;;;19.47;7.23;;;;;;;3.25;78.23;101548.25;5035678;28;20443;-71
2024/03/01 08:20:57;;;;;;;17.17;8.37;;;;;;;3.25;78.16;101551.72;5035637;28;20448;-71
2024/03/01 08:23:28;;;;;;;16.13;8.00;;;;;;;3.25;78.36;101546.53;5035597;28;20442;-71
2024/03/01 08:25:57;;;;;;;17.60;7.53;;;;;;;3.25;78.27;101551.72;5035571;28;20486;-71
2024/03/01 08:28:28;;;;;;;16.17;7.60;;;;;;;3.26;78.14;101550.00;5035384;28;20446;-71
2024/03/01 08:30:55;;;;;;;19.77;9.13;;;;;;;3.27;78.26;101550.03;5035620;28;20953;-70
2024/03/01 08:33:22;;;;;;;16.57;8.17;;;;;;;3.26;78.31;101553.44;5035284;28;20485;-70
2024/03/01 08:35:50;;;;;;;20.43;8.77;;;;;;;3.28;78.47;101550.91;5035385;28;21087;-70
2024/03/01 08:38:59;;;;;;;21.70;9.07;;;;;;;3.28;78.43;101558.66;5035226;28;20447;-71
2024/03/01 08:41:28;;;;;;;20.83;9.13;;;;;;;3.27;78.44;101555.22;5035518;28;20928;-70
2024/03/01 08:43:58;;;;;;;17.07;8.43;;;;;;;3.27;78.54;101552.63;5034623;28;20441;-71
2024/03/01 08:46:30;;;;;;;18.13;8.73;;;;;;;3.29;78.49;101545.75;5035408;28;20449;-71
2024/03/01 08:48:58;;;;;;;19.77;8.70;;;;;;;3.29;78.48;101558.69;5035356;28;20532;-71
2024/03/01 08:51:26;;;;;;;19.47;8.90;;;;;;;3.31;78.38;101555.28;5034967;28;20448;-70
2024/03/01 08:54:05;;;;;;;20.27;8.40;;;;;;;3.33;78.55;101566.53;5035121;28;20445;-70
2024/03/01 08:56:35;;;;;;;21.37;9.43;;;;;;;3.34;78.51;101565.66;5035002;28;20532;-71
2024/03/01 08:59:08;;;;;;;17.50;8.33;;;;;;;3.34;78.58;101563.94;5035297;28;20438;-71
2024/03/01 09:01:48;;;;;;;25.83;9.93;;;;;;;3.35;78.61;101557.06;5034790;28;20453;-70
2024/03/01 09:04:26;;;;;;;19.40;8.07;;;;;;;3.36;78.77;101569.16;5035295;28;20439;-71
2024/03/01 09:07:08;;;;;;;9.47;4.23;;;;;;;3.37;78.94;101555.38;5034669;28;20499;-70
2024/03/01 09:09:35;;;;;;;17.93;7.50;;;;;;;3.36;78.83;101561.41;5034830;28;20849;-70
2024/03/01 09:12:08;;;;;;;18.37;8.43;;;;;;;3.37;78.75;101563.16;5034556;28;21084;-70
2024/03/01 09:14:35;;;;;;;19.83;9.63;;;;;;;3.37;78.83;101564.00;5034659;28;20470;-70
2024/03/01 09:17:03;;;;;;;23.37;8.80;;;;;;;3.38;78.82;101551.94;5034545;28;20930;-70
2024/03/01 09:19:37;;;;;;;19.60;8.73;;;;;;;3.39;79.00;101557.16;5034907;28;20446;-71
2024/03/01 09:22:05;;;;;;;20.60;8.73;;;;;;;3.40;78.87;101560.63;5034530;28;20445;-71
2024/03/01 09:24:37;;;;;;;17.53;8.60;;;;;;;3.41;78.87;101562.34;5034574;28;20469;-70
2024/03/01 09:27:09;;;;;;;21.20;8.93;;;;;;;3.42;79.18;101558.94;5034351;28;20444;-71
2024/03/01 09:29:38;;;;;;;23.17;9.47;;;;;;;3.43;78.84;101552.91;5034313;28;20447;-71
2024/03/01 09:32:07;;;;;;;19.90;8.90;;;;;;;3.42;78.98;101544.28;5034194;28;20479;-70
2024/03/01 09:34:37;;;;;;;17.00;8.63;;;;;;;3.43;79.04;101545.16;5034127;28;20520;-70
2024/03/01 09:37:06;;;;;;;19.27;8.57;;;;;;;3.43;79.12;101545.16;5034396;28;20444;-71
2024/03/01 09:39:35;;;;;;;18.03;7.37;;;;;;;3.42;79.09;101539.09;5034226;28;20930;-70
2024/03/01 09:42:19;;;;;;;12.90;6.37;;;;;;;3.43;78.56;101546.00;5034260;28;20450;-75
2024/03/01 09:45:01;;;;;;;16.33;7.80;;;;;;;3.43;78.90;101545.16;5034179;28;20805;-75
2024/03/01 09:47:40;;;;;;;16.97;7.17;;;;;;;3.41;78.95;101542.56;5034148;28;20441;-75
2024/03/01 09:50:26;;;;;;;14.50;7.47;;;;;;;3.43;78.88;101539.97;5033989;28;20814;-75
2024/03/01 09:53:04;;;;;;;15.67;7.13;;;;;;;3.42;79.04;101546.00;5033841;28;20852;-76
2024/03/01 09:55:42;;;;;;;14.30;6.87;;;;;;;3.40;78.93;101545.09;5034110;28;20463;-74
2024/03/01 09:58:18;;;;;;;13.73;7.27;;;;;;;3.42;78.87;101549.47;5033808;28;20444;-75
2024/03/01 10:00:59;;;;;;;11.83;5.37;;;;;;;3.42;78.86;101554.63;5033825;28;20513;-75
2024/03/01 10:03:33;;;;;;;15.07;6.77;;;;;;;3.43;78.82;101537.38;5033698;28;20449;-75
2024/03/01 10:06:23;;;;;;;13.83;5.60;;;;;;;3.42;78.85;101548.59;5033815;28;20935;-75
2024/03/01 10:09:04;;;;;;;15.83;6.67;;;;;;;3.41;78.83;101536.47;5030616;28;20523;-75
2024/03/01 10:11:42;;;;;;;13.73;5.33;;;;;;;3.43;78.85;101534.81;5033610;28;20940;-75
2024/03/01 10:14:19;;;;;;;15.13;7.40;;;;;;;3.43;79.17;101539.97;5033565;28;20475;-75
2024/03/01 10:16:55;;;;;;;15.60;7.00;;;;;;;3.43;79.00;101535.66;5033644;28;20434;-75
2024/03/01 10:19:41;;;;;;;13.70;7.30;;;;;;;3.44;78.98;101536.53;5033440;28;20442;-75
2024/03/01 10:22:21;;;;;;;13.83;7.07;;;;;;;3.45;78.94;101540.88;5033447;28;20440;-75
2024/03/01 10:25:06;;;;;;;13.77;6.10;;;;;;;3.44;78.79;101541.72;5033519;28;20440;-75
2024/03/01 10:27:37;;;;;;;15.50;6.27;;;;;;;3.41;78.71;101534.78;5033258;28;20446;-75
2024/03/01 10:30:11;;;;;;;15.70;7.23;;;;;;;3.42;78.99;101541.69;5033216;28;20432;-75
2024/03/01 10:32:59;;;;;;;16.23;6.90;;;;;;;3.40;78.81;101539.91;5033194;28;21005;-71
2024/03/01 10:35:28;;;;;;;14.40;6.67;;;;;;;3.37;78.78;101537.28;5033277;28;20438;-71
2024/03/01 10:38:11;;;;;;;15.23;6.33;;;;;;;3.38;78.89;101536.41;5033051;28;20870;-71
2024/03/01 10:40:47;;;;;;;13.37;6.70;;;;;;;3.36;78.73;101545.91;5033014;28;20446;-71
2024/03/01 10:43:19;;;;;;;12.70;5.90;;;;;;;3.28;78.88;101533.66;5032980;28;20500;-71
2024/03/01 10:45:54;;;;;;;14.17;6.13;;;;;;;3.32;78.92;101537.19;5033119;28;20812;-71
2024/03/01 10:48:21;;;;;;;15.63;6.03;;;;;;;3.26;78.84;101537.94;5033120;28;20440;-71
2024/03/01 10:50:59;;;;;;;10.90;6.33;;;;;;;3.25;78.85;101532.75;5032940;28;20437;-68
2024/03/01 10:53:31;;;;;;;17.67;7.10;;;;;;;3.26;79.04;101542.22;5032797;28;20575;-68
2024/03/01 10:56:04;;;;;;;15.33;6.40;;;;;;;3.24;78.80;101544.81;5032783;28;20487;-68
2024/03/01 10:58:39;;;;;;;13.00;5.37;;;;;;;3.23;79.17;101543.03;5033014;28;20440;-69
2024/03/01 11:01:18;;;;;;;15.33;6.33;;;;;;;3.21;79.31;101534.41;5032731;28;20429;-69
2024/03/01 11:03:48;;;;;;;16.33;7.47;;;;;;;3.21;79.32;101538.69;5032712;28;20451;-69
2024/03/01 11:06:22;;;;;;;19.00;8.97;;;;;;;3.20;79.31;101532.63;5042247;28;20438;-68
2024/03/01 11:08:54;;;;;;;11.10;5.67;;;;;;;3.18;79.28;101534.31;5052925;28;20809;-68
2024/03/01 11:11:28;;;;;;;14.87;7.20;;;;;;;3.16;79.31;101525.69;5052602;28;20456;-68
2024/03/01 11:13:58;;;;;;;16.93;7.37;;;;;;;3.13;79.21;101528.22;5052400;28;20573;-69
2024/03/01 11:16:32;;;;;;;15.07;7.37;;;;;;;3.13;79.21;101525.63;5052756;28;20552;-68
2024/03/01 11:19:05;;;;;;;18.93;8.53;;;;;;;3.13;79.43;101524.75;5052603;28;20879;-68
2024/03/01 11:21:33;;;;;;;15.40;7.37;;;;;;;3.11;79.41;101527.28;5052434;28;20443;-68
2024/03/01 11:24:04;;;;;;;16.33;8.13;;;;;;;3.10;79.35;101522.97;5052371;28;20955;-68
2024/03/01 11:26:36;;;;;;;19.87;9.00;;;;;;;3.10;79.50;101515.22;5052678;28;20446;-68
2024/03/01 11:29:08;;;;;;;14.37;7.53;;;;;;;3.10;79.52;101515.22;5052456;28;20807;-68
2024/03/01 11:31:42;;;;;;;17.27;7.53;;;;;;;3.11;79.23;101522.13;5052373;28;20471;-68
2024/03/01 11:34:20;;;;;;;15.97;7.27;;;;;;;3.10;79.53;101520.38;5052214;28;20537;-69
2024/03/01 11:36:56;;;;;;;19.07;8.40;;;;;;;3.10;79.50;101522.97;5052674;28;20448;-69